createdAt,value
2023-03-23T00:01:43.929Z,1.3
2023-03-23T00:04:45.882Z,1.6
2023-03-23T00:07:47.801Z,1.8
2023-03-23T00:10:49.762Z,2
2023-03-23T00:13:51.711Z,3.9
2023-03-23T00:16:53.753Z,2.2
2023-03-23T00:19:55.646Z,2.2
2023-03-23T00:22:57.649Z,1.2
2023-03-23T00:25:59.573Z,2.1
2023-03-23T00:29:01.491Z,1.6
2023-03-23T00:32:03.466Z,2.7
2023-03-23T00:35:05.450Z,1.5
2023-03-23T00:38:07.415Z,1.2
2023-03-23T00:41:09.347Z,1.1
2023-03-23T00:44:11.307Z,1.3
2023-03-23T00:47:13.258Z,1.6
2023-03-23T00:50:15.233Z,1.2
2023-03-23T00:53:17.199Z,1.8
2023-03-23T00:56:19.202Z,1.5
2023-03-23T00:59:21.150Z,1.1
2023-03-23T01:02:23.161Z,0.8
2023-03-23T01:05:25.116Z,1.8
2023-03-23T01:08:27.087Z,1.5
2023-03-23T01:11:29.055Z,1.9
2023-03-23T01:14:31.007Z,1.5
2023-03-23T01:17:32.981Z,1.2
2023-03-23T01:20:34.921Z,1.1
2023-03-23T01:23:36.894Z,1.7
2023-03-23T01:26:38.841Z,1.5
2023-03-23T01:29:40.816Z,0.9
2023-03-23T01:32:42.782Z,1.2
2023-03-23T01:35:44.831Z,1.9
2023-03-23T01:38:46.708Z,1
2023-03-23T01:41:48.974Z,3.5
2023-03-23T01:44:50.620Z,0.8
2023-03-23T01:47:52.595Z,2.1
2023-03-23T01:50:54.575Z,1.3
2023-03-23T01:53:56.503Z,1
2023-03-23T01:56:58.473Z,1.3
2023-03-23T02:00:00.438Z,0.9
2023-03-23T02:03:02.397Z,1.4
2023-03-23T02:06:04.402Z,1.1
2023-03-23T02:09:10.498Z,1.4
2023-03-23T02:12:08.418Z,0.7
2023-03-23T02:15:10.362Z,2.1
2023-03-23T02:18:12.340Z,3.4
2023-03-23T02:21:14.312Z,1.4
2023-03-23T02:24:16.232Z,0.8
2023-03-23T02:27:18.226Z,1.7
2023-03-23T02:30:20.237Z,1.9
2023-03-23T02:33:22.153Z,0.9
2023-03-23T02:36:24.152Z,1.3
2023-03-23T02:39:26.070Z,0.8
2023-03-23T02:42:28.045Z,1.9
2023-03-23T02:45:29.977Z,0.7
2023-03-23T02:48:31.952Z,2.1
2023-03-23T02:51:33.906Z,1
2023-03-23T02:54:35.886Z,1.7
2023-03-23T02:57:40.276Z,1.9
2023-03-23T03:00:39.834Z,1.5
2023-03-23T03:03:41.802Z,1.6
2023-03-23T03:06:43.758Z,3.2
2023-03-23T03:09:45.688Z,1.5
2023-03-23T03:12:47.654Z,1.9
2023-03-23T03:15:49.634Z,1.7
2023-03-23T03:18:51.635Z,1.3
2023-03-23T03:21:53.539Z,1.4
2023-03-23T03:24:55.553Z,0.8
2023-03-23T03:27:57.500Z,1.6
2023-03-23T03:30:59.475Z,1.7
2023-03-23T03:34:01.413Z,1.2
2023-03-23T03:37:03.370Z,2
2023-03-23T03:40:05.370Z,1.4
2023-03-23T03:43:07.331Z,1.4
2023-03-23T03:46:09.303Z,1.6
2023-03-23T03:49:11.252Z,1.6
2023-03-23T03:52:13.250Z,2.1
2023-03-23T03:55:15.203Z,2
2023-03-23T03:58:17.174Z,2.6
2023-03-23T04:01:19.222Z,2
2023-03-23T04:04:21.119Z,1.7
2023-03-23T04:07:23.279Z,2.3
2023-03-23T04:10:32.561Z,2.3
2023-03-23T04:13:27.022Z,2.1
2023-03-23T04:16:28.993Z,2.8
2023-03-23T04:19:30.945Z,2
2023-03-23T04:22:33.079Z,1.9
2023-03-23T04:25:34.937Z,2
2023-03-23T04:28:37.047Z,3.8
2023-03-23T04:31:39.104Z,2.5
2023-03-23T04:34:41.136Z,2.5
2023-03-23T04:37:43.083Z,2.3
2023-03-23T04:40:45.035Z,3.2
2023-03-23T04:43:46.988Z,2.4
2023-03-23T04:46:48.965Z,2
2023-03-23T04:49:50.956Z,2.3
2023-03-23T04:52:52.930Z,1.8
2023-03-23T04:55:54.851Z,3.2
2023-03-23T04:58:56.848Z,2.9
2023-03-23T05:02:13.714Z,3.6
2023-03-23T05:05:00.832Z,2.1
2023-03-23T05:08:02.766Z,2.9
2023-03-23T05:11:04.757Z,1.9
2023-03-23T05:14:06.715Z,3.4
2023-03-23T05:17:08.696Z,2.2
2023-03-23T05:20:10.649Z,1.9
2023-03-23T05:23:12.622Z,1.6
2023-03-23T05:26:14.607Z,2.3
2023-03-23T05:29:16.612Z,2.4
2023-03-23T05:32:18.519Z,3.3
2023-03-23T05:35:20.741Z,1.7
2023-03-23T05:38:22.464Z,1.9
2023-03-23T05:41:24.436Z,2.3
2023-03-23T05:44:26.428Z,3.2
2023-03-23T05:47:28.358Z,3.4
2023-03-23T05:50:30.330Z,3
2023-03-23T05:53:32.274Z,2.3
2023-03-23T05:56:34.284Z,2.8
2023-03-23T05:59:36.223Z,4.1
2023-03-23T06:02:38.307Z,2.1
2023-03-23T06:05:40.445Z,1.7
2023-03-23T06:08:42.188Z,2.5
2023-03-23T06:11:44.153Z,1.9
2023-03-23T06:14:46.134Z,1.9
2023-03-23T06:17:48.181Z,3.4
2023-03-23T06:20:50.222Z,1.6
2023-03-23T06:23:52.086Z,1.4
2023-03-23T06:26:54.047Z,3
2023-03-23T06:29:56.044Z,3.3
2023-03-23T06:32:58.170Z,2
2023-03-23T06:36:00.262Z,4.4
2023-03-23T06:39:02.108Z,2.3
2023-03-23T06:42:04.078Z,2.5
2023-03-23T06:45:06.022Z,2.6
2023-03-23T06:48:08.400Z,2.5
2023-03-23T06:51:09.971Z,2.2
2023-03-23T06:54:11.998Z,3.3
2023-03-23T06:57:13.974Z,3.8
2023-03-23T07:00:15.960Z,2.6
2023-03-23T07:03:17.905Z,2.4
2023-03-23T07:06:19.929Z,2.3
2023-03-23T07:09:25.594Z,2.3
2023-03-23T07:12:23.826Z,2.9
2023-03-23T07:15:25.818Z,1.7
2023-03-23T07:18:27.753Z,2.5
2023-03-23T07:21:29.717Z,2.7
2023-03-23T07:24:31.673Z,2.3
2023-03-23T07:27:33.631Z,2.2
2023-03-23T07:30:35.593Z,2
2023-03-23T07:33:37.615Z,2.8
2023-03-23T07:36:39.879Z,2.8
2023-03-23T07:39:41.783Z,2.4
2023-03-23T07:42:43.740Z,2.8
2023-03-23T07:45:45.653Z,3.8
2023-03-23T07:48:47.629Z,4.2
2023-03-23T07:51:49.587Z,3.1
2023-03-23T07:54:51.555Z,1.7
2023-03-23T07:57:53.545Z,2.2
2023-03-23T08:00:55.473Z,2.5
2023-03-23T08:03:57.507Z,2.6
2023-03-23T08:06:59.487Z,3.1
2023-03-23T08:10:01.432Z,2.7
2023-03-23T08:13:03.423Z,2
2023-03-23T08:16:05.399Z,2.1
2023-03-23T08:19:08.615Z,2.8
2023-03-23T08:22:09.344Z,2.3
2023-03-23T08:25:11.324Z,2.7
2023-03-23T08:28:13.248Z,2.7
2023-03-23T08:31:15.290Z,3.3
2023-03-23T08:34:17.199Z,3.5
2023-03-23T08:37:19.165Z,1.9
2023-03-23T08:40:21.199Z,3
2023-03-23T08:43:23.096Z,4.1
2023-03-23T08:46:25.353Z,3
2023-03-23T08:49:27.001Z,3.5
2023-03-23T08:52:29.023Z,2.6
2023-03-23T08:55:30.977Z,2.1
2023-03-23T08:58:33.018Z,3.4
2023-03-23T09:01:34.944Z,2
2023-03-23T09:04:36.939Z,1.8
2023-03-23T09:07:39.026Z,2.6
2023-03-23T09:10:40.986Z,2.9
2023-03-23T09:13:42.959Z,2.2
2023-03-23T09:16:44.958Z,2.6
2023-03-23T09:19:46.886Z,2.3
2023-03-23T09:22:48.821Z,2.5
2023-03-23T09:25:50.798Z,2.1
2023-03-23T09:28:52.744Z,3.3
2023-03-23T09:31:54.698Z,2.7
2023-03-23T09:34:56.763Z,2.3
2023-03-23T09:37:58.699Z,4
2023-03-23T09:41:00.705Z,2.9
2023-03-23T09:44:02.646Z,1.6
2023-03-23T09:47:04.598Z,3.1
2023-03-23T09:50:06.601Z,3.4
2023-03-23T09:53:08.529Z,1.4
2023-03-23T09:56:10.548Z,2.6
2023-03-23T09:59:12.557Z,2.9
2023-03-23T10:02:14.551Z,2.2
2023-03-23T10:05:16.497Z,3.5
2023-03-23T10:08:18.477Z,1.3
2023-03-23T10:11:20.451Z,1.8
2023-03-23T10:14:22.406Z,1.3
2023-03-23T10:17:24.412Z,1.8
2023-03-23T10:20:26.352Z,1.9
2023-03-23T10:23:28.288Z,2.5
2023-03-23T10:26:30.263Z,1.8
2023-03-23T10:29:32.240Z,1.4
2023-03-23T10:32:34.202Z,1.3
2023-03-23T10:35:36.172Z,1.9
2023-03-23T10:38:38.364Z,1.1
2023-03-23T10:41:40.117Z,2.7
2023-03-23T10:44:42.088Z,3
2023-03-23T10:47:44.063Z,1.6
2023-03-23T10:50:45.987Z,1.5
2023-03-23T10:53:47.950Z,1.4
2023-03-23T10:56:58.920Z,1.5
2023-03-23T10:59:51.854Z,1.3
2023-03-23T11:02:53.819Z,2.4
2023-03-23T11:05:55.798Z,1.3
2023-03-23T11:08:57.744Z,2.4
2023-03-23T11:12:02.225Z,2.2
2023-03-23T11:15:01.683Z,2.2
2023-03-23T11:18:03.601Z,2.5
2023-03-23T11:21:05.599Z,2
2023-03-23T11:24:10.084Z,1.9
2023-03-23T11:27:09.547Z,2.8
2023-03-23T11:30:11.507Z,1.5
2023-03-23T11:33:13.502Z,1.8
2023-03-23T11:36:15.430Z,1.9
2023-03-23T11:39:17.406Z,2
2023-03-23T11:42:19.355Z,2.6
2023-03-23T11:45:21.329Z,2.2
2023-03-23T11:48:23.292Z,1.8
2023-03-23T11:51:25.281Z,2.6
2023-03-23T11:54:27.201Z,1.2
2023-03-23T11:57:29.183Z,1.8
2023-03-23T12:00:31.122Z,1.7
2023-03-23T12:03:33.096Z,2
2023-03-23T12:06:35.129Z,2.1
2023-03-23T12:09:37.082Z,1.9
2023-03-23T12:12:39.066Z,1.4
2023-03-23T12:15:41.080Z,1.2
2023-03-23T12:18:43.000Z,2
2023-03-23T12:21:44.919Z,1
2023-03-23T12:24:46.880Z,1.1
2023-03-23T12:27:48.862Z,1.9
2023-03-23T12:30:50.834Z,1.1
2023-03-23T12:33:52.783Z,1.4
2023-03-23T12:36:54.790Z,4.2
2023-03-23T12:39:56.700Z,1.5
2023-03-23T12:42:58.689Z,1.2
2023-03-23T12:46:00.656Z,3.2
2023-03-23T12:49:02.641Z,0.9
2023-03-23T12:52:04.626Z,1.3
2023-03-23T12:55:06.578Z,2
2023-03-23T12:58:08.596Z,1.3
2023-03-23T13:01:10.510Z,2.6
2023-03-23T13:04:12.468Z,1.7
2023-03-23T13:07:14.456Z,0.9
2023-03-23T13:10:16.390Z,1.4
2023-03-23T13:13:21.045Z,1.7
2023-03-23T13:16:20.559Z,1.6
2023-03-23T13:19:22.499Z,1.5
2023-03-23T13:22:24.435Z,0.7
2023-03-23T13:25:26.473Z,1.2
2023-03-23T13:28:28.711Z,1.1
2023-03-23T13:31:30.418Z,1.3
2023-03-23T13:34:32.384Z,1.2
2023-03-23T13:37:34.355Z,1.9
2023-03-23T13:40:36.293Z,1.5
2023-03-23T13:43:38.213Z,1.1
2023-03-23T13:46:40.216Z,1.4
2023-03-23T13:49:42.150Z,1
2023-03-23T13:52:44.199Z,2.4
2023-03-23T13:55:46.148Z,1.5
2023-03-23T13:58:49.260Z,0.9
2023-03-23T14:01:49.984Z,1.9
2023-03-23T14:04:51.926Z,1.1
2023-03-23T14:07:56.528Z,1.5
2023-03-23T14:10:55.868Z,2.4
2023-03-23T14:13:57.812Z,1.7
2023-03-23T14:16:59.776Z,1.2
2023-03-23T14:20:01.812Z,1.1
2023-03-23T14:23:03.702Z,1.5
2023-03-23T14:26:05.694Z,2.3
2023-03-23T14:29:07.676Z,1
2023-03-23T14:32:09.602Z,1.3
2023-03-23T14:35:12.642Z,1.7
2023-03-23T14:38:13.606Z,1.3
2023-03-23T14:41:15.542Z,1.4
2023-03-23T14:44:17.485Z,0.8
2023-03-23T14:47:19.769Z,1.8
2023-03-23T14:50:21.491Z,1.2
2023-03-23T14:53:23.634Z,2.1
2023-03-23T14:56:25.437Z,1.5
2023-03-23T14:59:27.353Z,1.2
2023-03-23T15:02:29.348Z,3.1
2023-03-23T15:05:31.296Z,1.7
2023-03-23T15:08:33.290Z,1.4
2023-03-23T15:11:35.237Z,1.9
2023-03-23T15:14:37.160Z,1.5
2023-03-23T15:17:39.130Z,1.4
2023-03-23T15:20:41.080Z,1.5
2023-03-23T15:23:43.103Z,2.3
2023-03-23T15:26:45.054Z,1.7
2023-03-23T15:29:46.969Z,1
2023-03-23T15:32:54.668Z,1.2
2023-03-23T15:35:50.921Z,1.8
2023-03-23T15:38:52.864Z,1.1
2023-03-23T15:41:54.842Z,1
2023-03-23T15:44:56.786Z,1.6
2023-03-23T15:47:58.756Z,2.7
2023-03-23T15:51:00.715Z,1.9
2023-03-23T15:54:05.634Z,1
2023-03-23T15:57:04.668Z,2.6
2023-03-23T16:00:06.600Z,3.4
2023-03-23T16:03:08.794Z,1.2
2023-03-23T16:06:10.661Z,1.7
2023-03-23T16:09:12.561Z,1
2023-03-23T16:12:14.523Z,2.8
2023-03-23T16:15:16.482Z,1.9
2023-03-23T16:18:18.447Z,1.3
2023-03-23T16:21:20.495Z,2.2
2023-03-23T16:24:22.360Z,3.2
2023-03-23T16:27:24.374Z,1.8
2023-03-23T16:30:26.296Z,1.7
2023-03-23T16:33:28.307Z,1.2
2023-03-23T16:36:30.246Z,1.9
2023-03-23T16:39:32.199Z,3.3
2023-03-23T16:42:34.158Z,1.4
2023-03-23T16:45:36.172Z,1.8
2023-03-23T16:48:38.119Z,2.6
2023-03-23T16:51:41.091Z,1.4
2023-03-23T16:54:42.061Z,1.5
2023-03-23T16:57:44.361Z,2.7
2023-03-23T17:00:46.000Z,1.5
2023-03-23T17:03:48.039Z,1.7
2023-03-23T17:06:49.943Z,1.7
2023-03-23T17:09:51.887Z,2.6
2023-03-23T17:12:53.882Z,1.9
2023-03-23T17:15:55.813Z,1.5
2023-03-23T17:18:57.789Z,1.8
2023-03-23T17:21:59.768Z,1.9
2023-03-23T17:25:01.766Z,3.2
2023-03-23T17:28:06.003Z,2.1
2023-03-23T17:31:05.713Z,2.3
2023-03-23T17:34:07.758Z,1.8
2023-03-23T17:37:09.740Z,1.2
2023-03-23T17:40:11.693Z,3.3
2023-03-23T17:43:13.670Z,1.2
2023-03-23T17:46:15.679Z,1.7
2023-03-23T17:49:17.613Z,3.4
2023-03-23T17:52:19.589Z,1.6
2023-03-23T17:55:21.570Z,1.6
2023-03-23T17:58:23.592Z,1.8
2023-03-23T18:01:25.618Z,1.9
2023-03-23T18:04:27.597Z,2.4
2023-03-23T18:07:29.562Z,1.9
2023-03-23T18:10:31.505Z,1.3
2023-03-23T18:13:33.605Z,3.2
2023-03-23T18:16:36.148Z,2.6
2023-03-23T18:19:38.097Z,2.2
2023-03-23T18:22:40.091Z,2.1
2023-03-23T18:25:42.212Z,2.1
2023-03-23T18:28:43.995Z,2.4
2023-03-23T18:31:46.032Z,1.8
2023-03-23T18:34:47.994Z,2.5
2023-03-23T18:37:49.941Z,1.9
2023-03-23T18:40:51.901Z,2.3
2023-03-23T18:43:55.119Z,1.9
2023-03-23T18:46:55.838Z,1.8
2023-03-23T18:49:57.808Z,1.6
2023-03-23T18:52:59.766Z,2.2
2023-03-23T18:56:01.870Z,1.3
2023-03-23T18:59:06.390Z,1.8
2023-03-23T19:02:05.963Z,3.9
2023-03-23T19:05:07.894Z,1.9
2023-03-23T19:08:09.819Z,2.1
2023-03-23T19:11:11.847Z,1.7
2023-03-23T19:14:13.970Z,2.5
2023-03-23T19:17:15.877Z,2
2023-03-23T19:20:37.391Z,2.6
2023-03-23T19:23:19.812Z,2.3
2023-03-23T19:26:21.853Z,1.4
2023-03-23T19:29:26.442Z,1.7
2023-03-23T19:32:25.958Z,1.9
2023-03-23T19:35:27.896Z,1.7
2023-03-23T19:38:32.710Z,2.6
2023-03-23T19:41:37.421Z,2.2
2023-03-23T19:44:39.653Z,2.5
2023-03-23T19:47:41.606Z,3
2023-03-23T19:50:43.475Z,2.5
2023-03-23T19:53:45.848Z,3.6
2023-03-23T19:56:47.527Z,3.2
2023-03-23T19:59:49.485Z,2.2
2023-03-23T20:02:51.505Z,2.2
2023-03-23T20:05:53.414Z,2.9
2023-03-23T20:08:55.641Z,2.5
2023-03-23T20:11:57.510Z,2.8
2023-03-23T20:15:02.188Z,1.7
2023-03-23T20:18:04.854Z,2.7
2023-03-23T20:21:06.776Z,2
2023-03-23T20:24:08.200Z,3
2023-03-23T20:27:10.274Z,2.4
2023-03-23T20:30:12.202Z,2.2
2023-03-23T20:33:14.555Z,2
2023-03-23T20:36:16.446Z,2.4
2023-03-23T20:39:18.462Z,1.2
2023-03-23T20:42:20.454Z,2
2023-03-23T20:45:22.400Z,1.6
2023-03-23T20:48:24.318Z,1.9
2023-03-23T20:51:32.958Z,1.8
2023-03-23T20:54:34.809Z,1.7
2023-03-23T20:57:36.815Z,2.2
2023-03-23T21:00:38.844Z,2.8
2023-03-23T21:03:40.892Z,2.5
2023-03-23T21:06:42.735Z,2.7
2023-03-23T21:09:44.652Z,2.3
2023-03-23T21:12:46.652Z,2.1
2023-03-23T21:15:48.581Z,2.8
2023-03-23T21:18:50.576Z,2.7
2023-03-23T21:21:55.034Z,2.6
2023-03-23T21:24:54.525Z,3.1
2023-03-23T21:27:56.445Z,2.9
2023-03-23T21:30:58.457Z,3.8
2023-03-23T21:34:00.480Z,3.3
2023-03-23T21:37:02.431Z,4.9
2023-03-23T21:40:04.390Z,4.6
2023-03-23T21:43:06.325Z,3.3
2023-03-23T21:46:08.314Z,3.5
2023-03-23T21:49:10.251Z,5.4
2023-03-23T21:52:12.196Z,3.5
2023-03-23T21:55:14.192Z,3.9
2023-03-23T21:58:16.126Z,3.8
2023-03-23T22:01:18.191Z,2.7
2023-03-23T22:04:20.070Z,4.1
2023-03-23T22:07:22.042Z,4.2
2023-03-23T22:10:24.029Z,3.3
2023-03-23T22:13:25.958Z,3.6
2023-03-23T22:16:28.063Z,4.2
2023-03-23T22:19:30.120Z,3.3
2023-03-23T22:22:31.926Z,3.6
2023-03-23T22:25:33.895Z,4.8
2023-03-23T22:28:35.890Z,4.5
2023-03-23T22:31:37.887Z,4.5
2023-03-23T22:34:39.956Z,5.4
2023-03-23T22:37:41.954Z,5.1
2023-03-23T22:40:44.177Z,3.8
2023-03-23T22:43:45.914Z,5.4
2023-03-23T22:46:47.956Z,4.1
2023-03-23T22:49:50.048Z,5.6
2023-03-23T22:52:51.850Z,5
2023-03-23T22:55:53.770Z,7.5
2023-03-23T22:58:55.816Z,4.7
2023-03-23T23:01:57.719Z,5.5
2023-03-23T23:04:59.710Z,3.5
2023-03-23T23:08:01.650Z,3.6
2023-03-23T23:11:03.756Z,5.4
2023-03-23T23:14:05.725Z,4.3
2023-03-23T23:17:07.660Z,5.4
2023-03-23T23:20:09.602Z,4.8
2023-03-23T23:23:11.634Z,7.7
2023-03-23T23:26:13.557Z,5
2023-03-23T23:29:15.499Z,5.3
2023-03-23T23:32:17.588Z,5.4
2023-03-23T23:35:19.560Z,5.8
2023-03-23T23:38:21.516Z,3.9
2023-03-23T23:41:23.508Z,5
2023-03-23T23:44:25.418Z,5
2023-03-23T23:47:27.444Z,5.4
2023-03-23T23:50:29.391Z,5.1
2023-03-23T23:53:31.339Z,6.9
2023-03-23T23:56:33.314Z,4.9
2023-03-23T23:59:35.256Z,6
